sensor_id;sensor_type;location;lat;lon;timestamp;P1;durP1;ratioP1;P2;durP2;ratioP2
669;SDS011;317;48.758;9.302;2022-10-16T00:00:46;2.77;;;2.23;;
669;SDS011;317;48.758;9.302;2022-10-16T00:03:13;3.77;;;2.10;;
669;SDS011;317;48.758;9.302;2022-10-16T00:05:40;2.50;;;2.07;;
669;SDS011;317;48.758;9.302;2022-10-16T00:08:08;1.80;;;1.70;;
669;SDS011;317;48.758;9.302;2022-10-16T00:10:37;4.10;;;2.37;;
669;SDS011;317;48.758;9.302;2022-10-16T00:13:05;3.67;;;2.00;;
669;SDS011;317;48.758;9.302;2022-10-16T00:15:33;2.20;;;2.10;;
669;SDS011;317;48.758;9.302;2022-10-16T00:18:01;2.80;;;2.40;;
669;SDS011;317;48.758;9.302;2022-10-16T00:20:28;2.73;;;2.53;;
669;SDS011;317;48.758;9.302;2022-10-16T00:22:57;2.90;;;2.17;;
669;SDS011;317;48.758;9.302;2022-10-16T00:25:24;5.40;;;2.00;;
669;SDS011;317;48.758;9.302;2022-10-16T00:27:50;4.73;;;3.07;;
669;SDS011;317;48.758;9.302;2022-10-16T00:30:19;6.63;;;2.20;;
669;SDS011;317;48.758;9.302;2022-10-16T00:32:45;2.40;;;2.30;;
669;SDS011;317;48.758;9.302;2022-10-16T00:35:12;9.40;;;1.90;;
669;SDS011;317;48.758;9.302;2022-10-16T00:37:39;2.80;;;2.60;;
669;SDS011;317;48.758;9.302;2022-10-16T00:40:06;3.73;;;2.10;;
669;SDS011;317;48.758;9.302;2022-10-16T00:42:33;8.10;;;2.70;;
669;SDS011;317;48.758;9.302;2022-10-16T00:45:00;3.20;;;2.90;;
669;SDS011;317;48.758;9.302;2022-10-16T00:47:30;3.60;;;2.20;;
669;SDS011;317;48.758;9.302;2022-10-16T00:50:02;3.23;;;2.17;;
669;SDS011;317;48.758;9.302;2022-10-16T00:52:33;4.13;;;1.90;;
669;SDS011;317;48.758;9.302;2022-10-16T00:55:01;3.03;;;2.13;;
669;SDS011;317;48.758;9.302;2022-10-16T00:57:29;2.93;;;2.10;;
669;SDS011;317;48.758;9.302;2022-10-16T00:59:56;2.97;;;2.27;;
669;SDS011;317;48.758;9.302;2022-10-16T01:02:23;5.83;;;1.97;;
669;SDS011;317;48.758;9.302;2022-10-16T01:04:52;4.97;;;2.23;;
669;SDS011;317;48.758;9.302;2022-10-16T01:07:24;5.27;;;2.40;;
669;SDS011;317;48.758;9.302;2022-10-16T01:10:02;2.60;;;1.90;;
669;SDS011;317;48.758;9.302;2022-10-16T01:12:36;2.53;;;2.33;;
669;SDS011;317;48.758;9.302;2022-10-16T01:15:12;5.30;;;2.80;;
669;SDS011;317;48.758;9.302;2022-10-16T01:17:45;2.80;;;2.07;;
669;SDS011;317;48.758;9.302;2022-10-16T01:20:22;4.37;;;2.20;;
669;SDS011;317;48.758;9.302;2022-10-16T01:22:56;5.70;;;1.97;;
669;SDS011;317;48.758;9.302;2022-10-16T01:25:35;2.07;;;1.87;;
669;SDS011;317;48.758;9.302;2022-10-16T01:28:10;4.90;;;2.30;;
669;SDS011;317;48.758;9.302;2022-10-16T01:30:39;3.37;;;1.73;;
669;SDS011;317;48.758;9.302;2022-10-16T01:33:10;3.47;;;1.80;;
669;SDS011;317;48.758;9.302;2022-10-16T01:35:42;2.07;;;1.97;;
669;SDS011;317;48.758;9.302;2022-10-16T01:38:15;7.53;;;2.80;;
669;SDS011;317;48.758;9.302;2022-10-16T01:40:48;2.30;;;2.03;;
669;SDS011;317;48.758;9.302;2022-10-16T01:43:20;5.07;;;1.90;;
669;SDS011;317;48.758;9.302;2022-10-16T01:45:51;2.97;;;1.53;;
669;SDS011;317;48.758;9.302;2022-10-16T01:48:19;2.20;;;1.73;;
669;SDS011;317;48.758;9.302;2022-10-16T01:50:50;2.40;;;1.90;;
669;SDS011;317;48.758;9.302;2022-10-16T01:53:21;5.63;;;2.60;;
669;SDS011;317;48.758;9.302;2022-10-16T01:55:49;2.90;;;2.23;;
669;SDS011;317;48.758;9.302;2022-10-16T01:58:21;6.33;;;2.97;;
669;SDS011;317;48.758;9.302;2022-10-16T02:00:50;4.17;;;3.17;;
669;SDS011;317;48.758;9.302;2022-10-16T02:03:19;2.67;;;2.43;;
669;SDS011;317;48.758;9.302;2022-10-16T02:05:47;7.50;;;2.33;;
669;SDS011;317;48.758;9.302;2022-10-16T02:08:17;3.50;;;2.20;;
669;SDS011;317;48.758;9.302;2022-10-16T02:10:44;4.40;;;2.17;;
669;SDS011;317;48.758;9.302;2022-10-16T02:13:12;4.77;;;2.50;;
669;SDS011;317;48.758;9.302;2022-10-16T02:15:43;3.50;;;2.27;;
669;SDS011;317;48.758;9.302;2022-10-16T02:18:10;5.10;;;2.00;;
669;SDS011;317;48.758;9.302;2022-10-16T02:20:39;4.23;;;2.00;;
669;SDS011;317;48.758;9.302;2022-10-16T02:23:12;5.30;;;1.97;;
669;SDS011;317;48.758;9.302;2022-10-16T02:25:44;9.33;;;3.00;;
669;SDS011;317;48.758;9.302;2022-10-16T02:28:13;5.13;;;3.03;;
669;SDS011;317;48.758;9.302;2022-10-16T02:30:46;6.63;;;3.17;;
669;SDS011;317;48.758;9.302;2022-10-16T02:33:17;3.43;;;2.77;;
669;SDS011;317;48.758;9.302;2022-10-16T02:35:46;3.93;;;2.77;;
669;SDS011;317;48.758;9.302;2022-10-16T02:38:15;4.40;;;2.63;;
669;SDS011;317;48.758;9.302;2022-10-16T02:40:43;3.00;;;2.57;;
669;SDS011;317;48.758;9.302;2022-10-16T02:43:10;4.00;;;2.60;;
669;SDS011;317;48.758;9.302;2022-10-16T02:45:37;4.70;;;3.37;;
669;SDS011;317;48.758;9.302;2022-10-16T02:48:06;4.67;;;3.27;;
669;SDS011;317;48.758;9.302;2022-10-16T02:50:32;3.17;;;2.80;;
669;SDS011;317;48.758;9.302;2022-10-16T02:52:59;9.37;;;2.80;;
669;SDS011;317;48.758;9.302;2022-10-16T02:55:26;3.17;;;2.77;;
669;SDS011;317;48.758;9.302;2022-10-16T02:57:53;5.83;;;2.70;;
669;SDS011;317;48.758;9.302;2022-10-16T03:00:20;5.50;;;2.77;;
669;SDS011;317;48.758;9.302;2022-10-16T03:02:47;4.20;;;2.40;;
669;SDS011;317;48.758;9.302;2022-10-16T03:05:16;2.80;;;2.37;;
669;SDS011;317;48.758;9.302;2022-10-16T03:07:43;3.30;;;2.60;;
669;SDS011;317;48.758;9.302;2022-10-16T03:10:09;7.10;;;2.80;;
669;SDS011;317;48.758;9.302;2022-10-16T03:12:36;4.13;;;2.47;;
669;SDS011;317;48.758;9.302;2022-10-16T03:15:03;6.83;;;3.10;;
669;SDS011;317;48.758;9.302;2022-10-16T03:17:31;5.10;;;2.60;;
669;SDS011;317;48.758;9.302;2022-10-16T03:19:59;5.47;;;2.67;;
669;SDS011;317;48.758;9.302;2022-10-16T03:22:27;3.20;;;2.60;;
669;SDS011;317;48.758;9.302;2022-10-16T03:24:54;7.30;;;2.87;;
669;SDS011;317;48.758;9.302;2022-10-16T03:27:21;2.73;;;2.53;;
669;SDS011;317;48.758;9.302;2022-10-16T03:29:48;3.93;;;2.37;;
669;SDS011;317;48.758;9.302;2022-10-16T03:32:15;6.13;;;2.80;;
669;SDS011;317;48.758;9.302;2022-10-16T03:34:41;5.90;;;2.77;;
669;SDS011;317;48.758;9.302;2022-10-16T03:37:08;7.77;;;2.60;;
669;SDS011;317;48.758;9.302;2022-10-16T03:39:36;5.53;;;2.30;;
669;SDS011;317;48.758;9.302;2022-10-16T03:42:03;3.93;;;2.10;;
669;SDS011;317;48.758;9.302;2022-10-16T03:44:30;12.03;;;3.17;;
669;SDS011;317;48.758;9.302;2022-10-16T03:46:57;7.97;;;2.73;;
669;SDS011;317;48.758;9.302;2022-10-16T03:49:24;4.23;;;2.33;;
669;SDS011;317;48.758;9.302;2022-10-16T03:51:50;3.93;;;2.33;;
669;SDS011;317;48.758;9.302;2022-10-16T03:54:17;4.30;;;2.80;;
669;SDS011;317;48.758;9.302;2022-10-16T03:56:45;5.73;;;3.33;;
669;SDS011;317;48.758;9.302;2022-10-16T03:59:12;5.07;;;1.87;;
669;SDS011;317;48.758;9.302;2022-10-16T04:01:39;2.90;;;2.23;;
669;SDS011;317;48.758;9.302;2022-10-16T04:04:05;3.73;;;2.13;;
669;SDS011;317;48.758;9.302;2022-10-16T04:06:32;8.90;;;2.33;;
669;SDS011;317;48.758;9.302;2022-10-16T04:08:59;2.80;;;1.60;;
669;SDS011;317;48.758;9.302;2022-10-16T04:11:26;3.80;;;2.20;;
669;SDS011;317;48.758;9.302;2022-10-16T04:13:55;3.57;;;1.70;;
669;SDS011;317;48.758;9.302;2022-10-16T04:16:22;4.87;;;2.80;;
669;SDS011;317;48.758;9.302;2022-10-16T04:18:48;2.70;;;1.57;;
669;SDS011;317;48.758;9.302;2022-10-16T04:21:15;3.40;;;1.53;;
669;SDS011;317;48.758;9.302;2022-10-16T04:23:42;4.73;;;1.87;;
669;SDS011;317;48.758;9.302;2022-10-16T04:26:09;5.00;;;2.23;;
669;SDS011;317;48.758;9.302;2022-10-16T04:28:36;5.00;;;2.07;;
669;SDS011;317;48.758;9.302;2022-10-16T04:31:05;3.80;;;1.80;;
669;SDS011;317;48.758;9.302;2022-10-16T04:33:32;3.83;;;2.60;;
669;SDS011;317;48.758;9.302;2022-10-16T04:35:59;6.63;;;1.77;;
669;SDS011;317;48.758;9.302;2022-10-16T04:38:27;2.37;;;2.23;;
669;SDS011;317;48.758;9.302;2022-10-16T04:40:53;5.07;;;1.80;;
669;SDS011;317;48.758;9.302;2022-10-16T04:43:21;2.40;;;1.70;;
669;SDS011;317;48.758;9.302;2022-10-16T04:45:47;4.70;;;1.57;;
669;SDS011;317;48.758;9.302;2022-10-16T04:48:17;5.40;;;1.70;;
669;SDS011;317;48.758;9.302;2022-10-16T04:50:44;2.40;;;1.77;;
669;SDS011;317;48.758;9.302;2022-10-16T04:53:11;4.83;;;1.90;;
669;SDS011;317;48.758;9.302;2022-10-16T04:55:38;4.70;;;1.70;;
669;SDS011;317;48.758;9.302;2022-10-16T04:58:05;4.73;;;1.93;;
669;SDS011;317;48.758;9.302;2022-10-16T05:00:31;3.57;;;1.80;;
669;SDS011;317;48.758;9.302;2022-10-16T05:03:04;4.17;;;1.80;;
669;SDS011;317;48.758;9.302;2022-10-16T05:05:35;2.83;;;1.53;;
669;SDS011;317;48.758;9.302;2022-10-16T05:08:02;4.30;;;1.93;;
669;SDS011;317;48.758;9.302;2022-10-16T05:10:29;2.50;;;2.00;;
669;SDS011;317;48.758;9.302;2022-10-16T05:12:56;2.03;;;1.73;;
669;SDS011;317;48.758;9.302;2022-10-16T05:15:22;5.57;;;1.90;;
669;SDS011;317;48.758;9.302;2022-10-16T05:17:52;5.40;;;2.03;;
669;SDS011;317;48.758;9.302;2022-10-16T05:20:19;7.57;;;1.60;;
669;SDS011;317;48.758;9.302;2022-10-16T05:22:47;8.43;;;1.87;;
669;SDS011;317;48.758;9.302;2022-10-16T05:25:14;3.17;;;1.60;;
669;SDS011;317;48.758;9.302;2022-10-16T05:27:41;2.80;;;1.60;;
669;SDS011;317;48.758;9.302;2022-10-16T05:30:08;4.10;;;1.50;;
669;SDS011;317;48.758;9.302;2022-10-16T05:32:35;1.50;;;1.40;;
669;SDS011;317;48.758;9.302;2022-10-16T05:35:02;2.03;;;1.43;;
669;SDS011;317;48.758;9.302;2022-10-16T05:37:29;5.57;;;2.20;;
669;SDS011;317;48.758;9.302;2022-10-16T05:39:58;3.73;;;1.40;;
669;SDS011;317;48.758;9.302;2022-10-16T05:42:24;1.90;;;1.47;;
669;SDS011;317;48.758;9.302;2022-10-16T05:44:51;5.33;;;1.60;;
669;SDS011;317;48.758;9.302;2022-10-16T05:47:18;2.40;;;1.47;;
669;SDS011;317;48.758;9.302;2022-10-16T05:49:46;2.97;;;1.63;;
669;SDS011;317;48.758;9.302;2022-10-16T05:52:12;3.27;;;1.70;;
669;SDS011;317;48.758;9.302;2022-10-16T05:54:39;4.40;;;1.67;;
669;SDS011;317;48.758;9.302;2022-10-16T05:57:10;3.57;;;1.60;;
669;SDS011;317;48.758;9.302;2022-10-16T05:59:37;4.10;;;1.90;;
669;SDS011;317;48.758;9.302;2022-10-16T06:02:04;3.83;;;1.93;;
669;SDS011;317;48.758;9.302;2022-10-16T06:04:31;3.80;;;1.63;;
669;SDS011;317;48.758;9.302;2022-10-16T06:06:58;5.37;;;1.83;;
669;SDS011;317;48.758;9.302;2022-10-16T06:09:26;5.03;;;1.50;;
669;SDS011;317;48.758;9.302;2022-10-16T06:11:53;4.27;;;1.90;;
669;SDS011;317;48.758;9.302;2022-10-16T06:14:21;2.10;;;1.80;;
669;SDS011;317;48.758;9.302;2022-10-16T06:16:47;2.27;;;1.60;;
669;SDS011;317;48.758;9.302;2022-10-16T06:19:14;2.10;;;1.83;;
669;SDS011;317;48.758;9.302;2022-10-16T06:21:42;3.90;;;1.67;;
669;SDS011;317;48.758;9.302;2022-10-16T06:24:09;2.60;;;1.40;;
669;SDS011;317;48.758;9.302;2022-10-16T06:26:36;5.93;;;1.60;;
669;SDS011;317;48.758;9.302;2022-10-16T06:29:04;3.03;;;1.43;;
669;SDS011;317;48.758;9.302;2022-10-16T06:31:32;3.77;;;1.70;;
669;SDS011;317;48.758;9.302;2022-10-16T06:33:59;2.67;;;1.20;;
669;SDS011;317;48.758;9.302;2022-10-16T06:36:26;4.17;;;1.70;;
669;SDS011;317;48.758;9.302;2022-10-16T06:38:53;6.50;;;1.57;;
669;SDS011;317;48.758;9.302;2022-10-16T06:41:21;7.80;;;1.70;;
669;SDS011;317;48.758;9.302;2022-10-16T06:43:48;2.53;;;1.30;;
669;SDS011;317;48.758;9.302;2022-10-16T06:46:16;3.50;;;1.70;;
669;SDS011;317;48.758;9.302;2022-10-16T06:48:46;1.50;;;1.40;;
669;SDS011;317;48.758;9.302;2022-10-16T06:51:14;8.97;;;1.90;;
669;SDS011;317;48.758;9.302;2022-10-16T06:53:43;5.50;;;1.87;;
669;SDS011;317;48.758;9.302;2022-10-16T06:56:12;1.93;;;1.73;;
669;SDS011;317;48.758;9.302;2022-10-16T06:58:39;6.13;;;1.90;;
669;SDS011;317;48.758;9.302;2022-10-16T07:01:07;4.30;;;1.90;;
669;SDS011;317;48.758;9.302;2022-10-16T07:03:35;3.77;;;1.60;;
669;SDS011;317;48.758;9.302;2022-10-16T07:06:04;4.40;;;1.93;;
669;SDS011;317;48.758;9.302;2022-10-16T07:08:33;1.77;;;1.67;;
669;SDS011;317;48.758;9.302;2022-10-16T07:11:00;6.83;;;2.03;;
669;SDS011;317;48.758;9.302;2022-10-16T07:13:27;6.60;;;6.00;;
669;SDS011;317;48.758;9.302;2022-10-16T07:15:54;5.53;;;3.43;;
669;SDS011;317;48.758;9.302;2022-10-16T07:18:22;5.40;;;3.87;;
669;SDS011;317;48.758;9.302;2022-10-16T07:20:51;7.07;;;5.60;;
669;SDS011;317;48.758;9.302;2022-10-16T07:23:20;8.57;;;4.43;;
669;SDS011;317;48.758;9.302;2022-10-16T07:25:52;5.57;;;3.40;;
669;SDS011;317;48.758;9.302;2022-10-16T07:28:20;5.53;;;2.40;;
669;SDS011;317;48.758;9.302;2022-10-16T07:30:47;6.00;;;1.90;;
669;SDS011;317;48.758;9.302;2022-10-16T07:33:13;2.50;;;2.30;;
669;SDS011;317;48.758;9.302;2022-10-16T07:35:46;3.00;;;2.07;;
669;SDS011;317;48.758;9.302;2022-10-16T07:38:14;2.30;;;2.00;;
669;SDS011;317;48.758;9.302;2022-10-16T07:40:42;6.00;;;2.47;;
669;SDS011;317;48.758;9.302;2022-10-16T07:43:09;7.03;;;2.30;;
669;SDS011;317;48.758;9.302;2022-10-16T07:45:35;6.67;;;2.30;;
669;SDS011;317;48.758;9.302;2022-10-16T07:48:02;2.73;;;2.53;;
669;SDS011;317;48.758;9.302;2022-10-16T07:50:29;4.13;;;2.67;;
669;SDS011;317;48.758;9.302;2022-10-16T07:52:56;4.13;;;2.50;;
669;SDS011;317;48.758;9.302;2022-10-16T07:55:23;2.60;;;2.40;;
669;SDS011;317;48.758;9.302;2022-10-16T07:57:51;12.57;;;2.37;;
669;SDS011;317;48.758;9.302;2022-10-16T08:00:17;2.40;;;2.10;;
669;SDS011;317;48.758;9.302;2022-10-16T08:02:44;1.87;;;1.73;;
669;SDS011;317;48.758;9.302;2022-10-16T08:05:11;2.23;;;2.03;;
669;SDS011;317;48.758;9.302;2022-10-16T08:07:38;6.50;;;2.07;;
669;SDS011;317;48.758;9.302;2022-10-16T08:10:05;2.20;;;1.70;;
669;SDS011;317;48.758;9.302;2022-10-16T08:12:32;3.20;;;1.43;;
669;SDS011;317;48.758;9.302;2022-10-16T08:15:00;2.53;;;2.33;;
669;SDS011;317;48.758;9.302;2022-10-16T08:17:27;2.33;;;1.90;;
669;SDS011;317;48.758;9.302;2022-10-16T08:19:54;3.53;;;2.87;;
669;SDS011;317;48.758;9.302;2022-10-16T08:22:20;2.90;;;1.90;;
669;SDS011;317;48.758;9.302;2022-10-16T08:24:47;3.00;;;1.90;;
669;SDS011;317;48.758;9.302;2022-10-16T08:27:14;3.33;;;2.30;;
669;SDS011;317;48.758;9.302;2022-10-16T08:29:41;2.67;;;1.90;;
669;SDS011;317;48.758;9.302;2022-10-16T08:32:09;1.73;;;1.63;;
669;SDS011;317;48.758;9.302;2022-10-16T08:34:36;4.97;;;2.00;;
669;SDS011;317;48.758;9.302;2022-10-16T08:37:03;2.17;;;1.70;;
669;SDS011;317;48.758;9.302;2022-10-16T08:39:29;2.33;;;1.77;;
669;SDS011;317;48.758;9.302;2022-10-16T08:42:00;4.00;;;1.97;;
669;SDS011;317;48.758;9.302;2022-10-16T08:44:47;3.00;;;2.00;;
669;SDS011;317;48.758;9.302;2022-10-16T08:47:33;2.60;;;1.87;;
669;SDS011;317;48.758;9.302;2022-10-16T08:50:09;5.10;;;1.90;;
669;SDS011;317;48.758;9.302;2022-10-16T08:52:38;4.07;;;2.00;;
669;SDS011;317;48.758;9.302;2022-10-16T08:55:08;5.80;;;4.20;;
669;SDS011;317;48.758;9.302;2022-10-16T08:57:50;4.00;;;3.10;;
669;SDS011;317;48.758;9.302;2022-10-16T09:00:17;7.70;;;2.13;;
669;SDS011;317;48.758;9.302;2022-10-16T09:02:48;1.50;;;1.40;;
669;SDS011;317;48.758;9.302;2022-10-16T09:05:21;3.27;;;1.97;;
669;SDS011;317;48.758;9.302;2022-10-16T09:07:59;3.73;;;2.40;;
669;SDS011;317;48.758;9.302;2022-10-16T09:10:37;2.20;;;1.50;;
669;SDS011;317;48.758;9.302;2022-10-16T09:13:12;2.17;;;1.93;;
669;SDS011;317;48.758;9.302;2022-10-16T09:15:46;3.90;;;2.10;;
669;SDS011;317;48.758;9.302;2022-10-16T09:18:23;4.70;;;2.60;;
669;SDS011;317;48.758;9.302;2022-10-16T09:20:56;2.63;;;2.13;;
669;SDS011;317;48.758;9.302;2022-10-16T09:23:31;5.53;;;2.03;;
669;SDS011;317;48.758;9.302;2022-10-16T09:26:01;2.00;;;1.90;;
669;SDS011;317;48.758;9.302;2022-10-16T09:28:30;2.03;;;1.93;;
669;SDS011;317;48.758;9.302;2022-10-16T09:30:57;2.73;;;2.07;;
669;SDS011;317;48.758;9.302;2022-10-16T09:33:25;7.33;;;2.20;;
669;SDS011;317;48.758;9.302;2022-10-16T09:35:56;2.70;;;1.70;;
669;SDS011;317;48.758;9.302;2022-10-16T09:38:25;4.70;;;2.10;;
669;SDS011;317;48.758;9.302;2022-10-16T09:40:53;4.53;;;2.03;;
669;SDS011;317;48.758;9.302;2022-10-16T09:43:22;3.33;;;1.17;;
669;SDS011;317;48.758;9.302;2022-10-16T09:45:55;4.90;;;1.57;;
669;SDS011;317;48.758;9.302;2022-10-16T09:48:33;2.27;;;1.47;;
669;SDS011;317;48.758;9.302;2022-10-16T09:51:04;2.60;;;1.80;;
669;SDS011;317;48.758;9.302;2022-10-16T09:53:40;2.27;;;1.20;;
669;SDS011;317;48.758;9.302;2022-10-16T09:56:09;2.37;;;1.70;;
669;SDS011;317;48.758;9.302;2022-10-16T09:58:41;3.43;;;1.53;;
669;SDS011;317;48.758;9.302;2022-10-16T10:01:12;5.43;;;1.90;;
669;SDS011;317;48.758;9.302;2022-10-16T10:03:43;2.83;;;1.33;;
669;SDS011;317;48.758;9.302;2022-10-16T10:06:16;1.87;;;1.63;;
669;SDS011;317;48.758;9.302;2022-10-16T10:08:55;5.03;;;1.43;;
669;SDS011;317;48.758;9.302;2022-10-16T10:11:40;3.33;;;1.57;;
669;SDS011;317;48.758;9.302;2022-10-16T10:14:14;8.63;;;1.73;;
669;SDS011;317;48.758;9.302;2022-10-16T10:16:46;3.93;;;1.47;;
669;SDS011;317;48.758;9.302;2022-10-16T10:19:15;3.60;;;1.50;;
669;SDS011;317;48.758;9.302;2022-10-16T10:21:43;3.67;;;1.33;;
669;SDS011;317;48.758;9.302;2022-10-16T10:24:10;3.50;;;1.97;;
669;SDS011;317;48.758;9.302;2022-10-16T10:26:38;3.07;;;1.57;;
669;SDS011;317;48.758;9.302;2022-10-16T10:29:08;5.33;;;1.63;;
669;SDS011;317;48.758;9.302;2022-10-16T10:31:44;2.63;;;1.20;;
669;SDS011;317;48.758;9.302;2022-10-16T10:34:25;1.70;;;1.60;;
669;SDS011;317;48.758;9.302;2022-10-16T10:37:02;5.97;;;1.47;;
669;SDS011;317;48.758;9.302;2022-10-16T10:39:38;1.40;;;1.30;;
669;SDS011;317;48.758;9.302;2022-10-16T10:42:13;3.87;;;1.63;;
669;SDS011;317;48.758;9.302;2022-10-16T10:44:54;2.77;;;1.43;;
669;SDS011;317;48.758;9.302;2022-10-16T10:47:32;2.33;;;1.40;;
669;SDS011;317;48.758;9.302;2022-10-16T10:50:10;4.20;;;1.50;;
669;SDS011;317;48.758;9.302;2022-10-16T10:52:47;1.30;;;1.20;;
669;SDS011;317;48.758;9.302;2022-10-16T10:55:23;3.43;;;1.80;;
669;SDS011;317;48.758;9.302;2022-10-16T10:58:04;1.40;;;1.30;;
669;SDS011;317;48.758;9.302;2022-10-16T11:00:50;2.57;;;1.40;;
669;SDS011;317;48.758;9.302;2022-10-16T11:03:30;4.40;;;1.70;;
669;SDS011;317;48.758;9.302;2022-10-16T11:06:08;2.33;;;1.27;;
669;SDS011;317;48.758;9.302;2022-10-16T11:08:39;2.57;;;1.70;;
669;SDS011;317;48.758;9.302;2022-10-16T11:11:11;2.13;;;1.27;;
669;SDS011;317;48.758;9.302;2022-10-16T11:13:45;3.90;;;2.70;;
669;SDS011;317;48.758;9.302;2022-10-16T11:16:21;1.83;;;1.13;;
669;SDS011;317;48.758;9.302;2022-10-16T11:18:55;2.73;;;1.27;;
669;SDS011;317;48.758;9.302;2022-10-16T11:21:27;1.20;;;1.10;;
669;SDS011;317;48.758;9.302;2022-10-16T11:24:01;1.20;;;0.97;;
669;SDS011;317;48.758;9.302;2022-10-16T11:26:39;3.20;;;1.60;;
669;SDS011;317;48.758;9.302;2022-10-16T11:29:10;3.20;;;1.60;;
669;SDS011;317;48.758;9.302;2022-10-16T11:31:43;2.60;;;1.23;;
669;SDS011;317;48.758;9.302;2022-10-16T11:34:15;5.93;;;1.83;;
669;SDS011;317;48.758;9.302;2022-10-16T11:36:50;2.07;;;1.63;;
669;SDS011;317;48.758;9.302;2022-10-16T11:39:22;3.60;;;1.37;;
669;SDS011;317;48.758;9.302;2022-10-16T11:41:52;2.03;;;1.30;;
669;SDS011;317;48.758;9.302;2022-10-16T11:44:33;2.47;;;1.50;;
669;SDS011;317;48.758;9.302;2022-10-16T11:47:12;1.53;;;1.27;;
669;SDS011;317;48.758;9.302;2022-10-16T11:49:49;3.63;;;1.70;;
669;SDS011;317;48.758;9.302;2022-10-16T11:52:28;1.30;;;1.20;;
669;SDS011;317;48.758;9.302;2022-10-16T11:55:01;2.50;;;1.50;;
669;SDS011;317;48.758;9.302;2022-10-16T11:57:32;1.47;;;0.90;;
669;SDS011;317;48.758;9.302;2022-10-16T12:00:04;4.27;;;1.83;;
669;SDS011;317;48.758;9.302;2022-10-16T12:02:39;2.70;;;1.40;;
669;SDS011;317;48.758;9.302;2022-10-16T12:05:18;2.60;;;1.30;;
669;SDS011;317;48.758;9.302;2022-10-16T12:07:53;2.57;;;1.40;;
669;SDS011;317;48.758;9.302;2022-10-16T12:10:28;1.60;;;1.10;;
669;SDS011;317;48.758;9.302;2022-10-16T12:13:01;3.60;;;1.10;;
669;SDS011;317;48.758;9.302;2022-10-16T12:15:29;1.30;;;1.20;;
669;SDS011;317;48.758;9.302;2022-10-16T12:17:57;3.47;;;1.17;;
669;SDS011;317;48.758;9.302;2022-10-16T12:20:26;2.23;;;1.10;;
669;SDS011;317;48.758;9.302;2022-10-16T12:22:59;2.30;;;1.10;;
669;SDS011;317;48.758;9.302;2022-10-16T12:25:28;1.80;;;1.33;;
669;SDS011;317;48.758;9.302;2022-10-16T12:27:59;1.80;;;1.67;;
669;SDS011;317;48.758;9.302;2022-10-16T12:30:28;2.30;;;1.20;;
669;SDS011;317;48.758;9.302;2022-10-16T12:32:57;2.10;;;1.23;;
669;SDS011;317;48.758;9.302;2022-10-16T12:35:27;1.10;;;1.00;;
669;SDS011;317;48.758;9.302;2022-10-16T12:38:05;4.75;;;1.73;;
669;SDS011;317;48.758;9.302;2022-10-16T12:40:35;2.97;;;1.20;;
669;SDS011;317;48.758;9.302;2022-10-16T12:43:11;1.55;;;1.10;;
669;SDS011;317;48.758;9.302;2022-10-16T12:45:58;2.30;;;1.10;;
669;SDS011;317;48.758;9.302;2022-10-16T12:48:26;3.67;;;1.40;;
669;SDS011;317;48.758;9.302;2022-10-16T12:50:56;2.00;;;1.10;;
669;SDS011;317;48.758;9.302;2022-10-16T12:53:25;2.47;;;1.25;;
669;SDS011;317;48.758;9.302;2022-10-16T12:56:00;2.15;;;1.08;;
669;SDS011;317;48.758;9.302;2022-10-16T12:58:38;2.72;;;1.45;;
669;SDS011;317;48.758;9.302;2022-10-16T13:01:18;2.70;;;1.20;;
669;SDS011;317;48.758;9.302;2022-10-16T13:03:58;2.20;;;1.10;;
669;SDS011;317;48.758;9.302;2022-10-16T13:06:38;1.93;;;1.57;;
669;SDS011;317;48.758;9.302;2022-10-16T13:09:26;1.50;;;1.40;;
669;SDS011;317;48.758;9.302;2022-10-16T13:15:16;3.13;;;1.10;;
669;SDS011;317;48.758;9.302;2022-10-16T13:17:54;5.50;;;1.77;;
669;SDS011;317;48.758;9.302;2022-10-16T13:20:29;1.33;;;1.23;;
669;SDS011;317;48.758;9.302;2022-10-16T13:23:03;2.60;;;1.30;;
669;SDS011;317;48.758;9.302;2022-10-16T13:25:40;2.50;;;1.30;;
669;SDS011;317;48.758;9.302;2022-10-16T13:28:15;2.80;;;1.40;;
669;SDS011;317;48.758;9.302;2022-10-16T13:30:51;2.70;;;1.40;;
669;SDS011;317;48.758;9.302;2022-10-16T13:33:19;2.60;;;1.50;;
669;SDS011;317;48.758;9.302;2022-10-16T13:35:54;1.70;;;1.40;;
669;SDS011;317;48.758;9.302;2022-10-16T13:38:23;1.43;;;1.33;;
669;SDS011;317;48.758;9.302;2022-10-16T13:40:54;2.13;;;1.23;;
669;SDS011;317;48.758;9.302;2022-10-16T13:43:25;2.70;;;1.50;;
669;SDS011;317;48.758;9.302;2022-10-16T13:45:56;2.83;;;1.40;;
669;SDS011;317;48.758;9.302;2022-10-16T13:48:24;1.73;;;1.50;;
669;SDS011;317;48.758;9.302;2022-10-16T13:50:58;3.17;;;1.80;;
669;SDS011;317;48.758;9.302;2022-10-16T13:53:30;2.60;;;1.30;;
669;SDS011;317;48.758;9.302;2022-10-16T13:55:59;1.30;;;1.20;;
669;SDS011;317;48.758;9.302;2022-10-16T13:58:28;1.33;;;1.23;;
669;SDS011;317;48.758;9.302;2022-10-16T14:00:56;1.20;;;1.10;;
669;SDS011;317;48.758;9.302;2022-10-16T14:03:24;1.60;;;1.40;;
669;SDS011;317;48.758;9.302;2022-10-16T14:05:52;2.30;;;1.37;;
669;SDS011;317;48.758;9.302;2022-10-16T14:08:23;1.47;;;1.10;;
669;SDS011;317;48.758;9.302;2022-10-16T14:10:52;1.50;;;1.10;;
669;SDS011;317;48.758;9.302;2022-10-16T14:13:24;1.23;;;1.13;;
669;SDS011;317;48.758;9.302;2022-10-16T14:15:56;2.60;;;1.80;;
669;SDS011;317;48.758;9.302;2022-10-16T14:18:25;3.70;;;1.50;;
669;SDS011;317;48.758;9.302;2022-10-16T14:20:54;1.70;;;1.60;;
669;SDS011;317;48.758;9.302;2022-10-16T14:23:29;1.40;;;1.30;;
669;SDS011;317;48.758;9.302;2022-10-16T14:26:11;4.70;;;1.50;;
669;SDS011;317;48.758;9.302;2022-10-16T14:28:41;2.70;;;1.87;;
669;SDS011;317;48.758;9.302;2022-10-16T14:33:58;3.63;;;1.57;;
669;SDS011;317;48.758;9.302;2022-10-16T14:36:28;2.40;;;1.30;;
669;SDS011;317;48.758;9.302;2022-10-16T14:39:00;1.50;;;1.40;;
669;SDS011;317;48.758;9.302;2022-10-16T14:41:30;2.80;;;1.30;;
669;SDS011;317;48.758;9.302;2022-10-16T14:44:02;1.77;;;1.50;;
669;SDS011;317;48.758;9.302;2022-10-16T14:46:32;1.53;;;1.43;;
669;SDS011;317;48.758;9.302;2022-10-16T14:49:02;4.00;;;1.53;;
669;SDS011;317;48.758;9.302;2022-10-16T14:51:39;1.70;;;1.40;;
669;SDS011;317;48.758;9.302;2022-10-16T14:54:08;1.87;;;1.50;;
669;SDS011;317;48.758;9.302;2022-10-16T14:56:42;3.43;;;1.93;;
669;SDS011;317;48.758;9.302;2022-10-16T14:59:14;1.67;;;1.57;;
669;SDS011;317;48.758;9.302;2022-10-16T15:01:46;3.57;;;1.57;;
669;SDS011;317;48.758;9.302;2022-10-16T15:04:17;2.90;;;1.47;;
669;SDS011;317;48.758;9.302;2022-10-16T15:06:45;2.53;;;1.60;;
669;SDS011;317;48.758;9.302;2022-10-16T15:09:12;2.17;;;1.37;;
669;SDS011;317;48.758;9.302;2022-10-16T15:11:39;1.60;;;1.50;;
669;SDS011;317;48.758;9.302;2022-10-16T15:14:08;9.80;;;1.97;;
669;SDS011;317;48.758;9.302;2022-10-16T15:16:38;2.93;;;1.70;;
669;SDS011;317;48.758;9.302;2022-10-16T15:19:05;2.00;;;1.90;;
669;SDS011;317;48.758;9.302;2022-10-16T15:21:33;3.97;;;2.17;;
669;SDS011;317;48.758;9.302;2022-10-16T15:24:01;1.60;;;1.50;;
669;SDS011;317;48.758;9.302;2022-10-16T15:26:28;4.27;;;1.40;;
669;SDS011;317;48.758;9.302;2022-10-16T15:28:55;1.83;;;1.67;;
669;SDS011;317;48.758;9.302;2022-10-16T15:31:23;2.00;;;1.90;;
669;SDS011;317;48.758;9.302;2022-10-16T15:33:51;1.80;;;1.70;;
669;SDS011;317;48.758;9.302;2022-10-16T15:36:26;1.73;;;1.50;;
669;SDS011;317;48.758;9.302;2022-10-16T15:38:54;2.03;;;1.93;;
669;SDS011;317;48.758;9.302;2022-10-16T15:41:21;2.13;;;1.70;;
669;SDS011;317;48.758;9.302;2022-10-16T15:43:48;2.60;;;2.07;;
669;SDS011;317;48.758;9.302;2022-10-16T15:46:17;2.30;;;1.77;;
669;SDS011;317;48.758;9.302;2022-10-16T15:48:46;3.13;;;1.80;;
669;SDS011;317;48.758;9.302;2022-10-16T15:51:15;3.70;;;1.83;;
669;SDS011;317;48.758;9.302;2022-10-16T15:53:42;1.90;;;1.80;;
669;SDS011;317;48.758;9.302;2022-10-16T15:56:11;3.60;;;1.70;;
669;SDS011;317;48.758;9.302;2022-10-16T15:58:39;2.43;;;1.50;;
669;SDS011;317;48.758;9.302;2022-10-16T16:01:06;6.20;;;1.50;;
669;SDS011;317;48.758;9.302;2022-10-16T16:03:35;4.77;;;2.20;;
669;SDS011;317;48.758;9.302;2022-10-16T16:06:05;9.70;;;7.10;;
669;SDS011;317;48.758;9.302;2022-10-16T16:08:34;6.97;;;5.77;;